CST,Max TemperatureF,Mean TemperatureF,Min TemperatureF,Max Dew PointF,MeanDew PointF,Min DewpointF,Max Humidity, Mean Humidity, Min Humidity, Max Sea Level PressureIn, Mean Sea Level PressureIn, Min Sea Level PressureIn, Max VisibilityMiles, Mean VisibilityMiles, Min VisibilityMiles, Max Wind SpeedMPH, Mean Wind SpeedMPH, Max Gust SpeedMPH,PrecipitationIn, CloudCover, Events, WindDirDegrees
2013-1-1,28,26,23,25,22,18,93,86,80,30.31,30.24,30.12,10,6,3,16,10,24,0.00,8,Rain,345
2013-1-2,37,26,14,28,20,10,100,83,65,30.32,30.25,30.18,10,9,6,16,9,21,0.00,2,,279
2013-1-3,35,26,17,23,20,16,93,75,52,30.48,30.41,30.30,10,10,10,13,8,17,0.00,0,,311
2013-1-4,50,32,15,28,21,14,93,70,30,30.43,30.32,30.22,10,10,10,23,9,29,0.00,3,,219
2013-1-5,46,36,26,30,26,19,93,69,43,30.33,30.20,30.13,10,10,10,18,11,22,0.00,2,,248
2013-1-6,50,36,21,27,23,18,93,64,30,30.43,30.34,30.25,10,10,10,14,9,,0.00,0,,245
2013-1-7,53,38,24,27,23,19,80,60,30,30.24,30.16,30.05,10,10,10,26,13,32,0.00,0,,195
2013-1-8,,,,,,,,,,,,,,,,,,,,,,
2013-1-9,,,,,,,,,,,,,,,,,,,,,,
2013-1-10,,,,,,,,,,,,,,,,,,,,,,
2013-1-11,60,50,41,45,35,19,67,50,34,29.85,29.66,29.54,10,10,10,26,19,34,0.00,4,,249
2013-1-12,39,31,23,30,17,9,75,59,38,30.14,30.03,29.87,10,10,10,21,14,30,0.00,8,,3
2013-1-13,30,22,14,10,7,5,79,56,34,30.36,30.26,30.09,10,10,10,17,11,24,0.00,1,,1
2013-1-14,32,24,15,14,10,5,80,58,32,30.45,30.36,30.30,10,10,10,12,5,16,0.00,3,,50
2013-1-15,35,25,15,14,12,9,86,63,33,30.33,30.27,30.21,10,10,10,10,5,,0.00,3,,33
2013-1-16,55,35,15,28,22,12,93,66,36,30.26,30.15,30.09,10,10,9,15,9,18,0.00,1,,285
2013-1-17,55,42,30,28,27,25,80,61,33,30.52,30.43,30.27,10,10,2,13,9,,0.00,0,,291
2013-1-18,62,45,28,32,29,25,87,58,27,30.42,30.23,30.08,10,10,10,31,15,40,0.00,1,,206
2013-1-19,66,47,28,32,26,21,93,51,19,30.25,30.12,30.03,10,10,10,16,11,20,0.00,0,,309
2013-1-20,55,42,26,28,24,14,80,57,33,30.37,30.23,30.13,10,10,10,22,8,31,0.00,0,,40
2013-1-21,39,28,17,14,12,9,73,54,31,30.45,30.35,30.24,10,10,10,13,8,,0.00,1,,80
2013-1-22,53,36,19,25,19,12,86,58,33,30.26,30.19,30.12,10,10,8,13,7,,0.00,1,,106
2013-1-23,55,38,21,32,26,18,86,62,38,30.26,30.18,30.11,10,10,7,18,6,23,0.00,1,,1
2013-1-24,35,30,26,23,17,14,69,62,55,30.33,30.24,30.14,10,10,8,20,13,24,0.00,8,,34
2013-1-25,50,36,21,27,23,18,93,64,37,30.28,30.20,30.14,10,8,4,8,3,,0.00,1,,274
2013-1-26,48,37,26,45,32,23,100,76,57,30.22,30.12,29.96,10,7,3,21,8,23,0.00,4,,151
2013-1-27,75,58,42,54,50,43,100,79,36,29.99,29.80,29.70,10,7,2,34,18,43,0.00,4,,192
2013-1-28,73,56,39,57,47,36,100,70,33,29.83,29.74,29.65,10,10,10,29,14,37,0.00,1,,198
2013-1-29,55,45,33,52,36,28,88,75,50,29.70,29.63,29.54,10,10,8,20,12,28,0.00,5,Rain,344
2013-1-30,41,31,21,28,20,10,87,61,29,30.01,29.93,29.71,10,10,8,24,17,38,0.00,3,,312
2013-1-31,48,34,17,27,17,9,74,59,34,30.43,30.18,29.98,10,10,10,22,10,29,0.00,0,,18